Current Conditions
Mostly Clear
Conditions



Pressure
1034.92 (hPa) - 30.56 (inHG)
Visibility

10.0 (km) - 6.2 (miles)
Temperature
-3  °C
Temperature
-6  °C
Dewpoint
80  %
 Humidity
Wind Speed
2  km/h
1  kts
1  mph
0.4  m/s
Wind Direction
N
45°
E
90°
135°
S
180°
225°
W
270°
315°
Calm

Due North
Airport Data
LIPB
Bolzano Airport
Metar :LIPB 072150Z VRB01KT CAVOK M03/M06 Q1035
Tue 7th February 22:50 pm
Raw Metar Info
Raw METAR is the most common format in the world for the transmission of observational weather data. It is highly standardized through the International Civil Aviation Organization (ICAO), which allows it to be understood throughout most of the world.
API Info
Data Provided by
https://www.checkwx.com/weather/LIPB

Aviation Weather providing METAR, TAF, AIRMET, SIGMET and OUTLOOK Weather Reports
© Info
CSS/SVG/PHP scripts were developed by weather34 for use in the weather34 template © 2015-2023

Guide Info provided by Metar-Wikipedia